Terminal Aerodrome Forecast
Issued by NWS

Home | Current Version | Previous Version | Text Only | Print | Product List | Glossary On
Versions: 1 2 3 4 5 6 7 8 9 10 11 12 13 14 15 16 17 18 19 20 21 22 23 24 25 26 27 28 29 30 31 32 33 34 35
000
FTUS41 KALY 020633 AAA
TAFPSF
TAF AMD
KPSF 020633Z 0207/0306 00000KT 1SM BR BKN002
     FM020800 00000KT 1/2SM FG VV002
     FM021330 VRB03KT 4SM BR SCT002
     FM021500 26005KT P6SM FEW040
     FM030000 VRB02KT 5SM BR SKC=

USA.gov is the U.S. government's official web portal to all federal, state and local government web resources and services.